createdAt,value
2019-05-11T00:00:47.592Z,67.63
2019-05-11T00:01:47.577Z,67.29
2019-05-11T00:02:47.567Z,67.43
2019-05-11T00:03:47.554Z,67.08
2019-05-11T00:04:47.591Z,67.93
2019-05-11T00:05:47.539Z,68.13
2019-05-11T00:06:47.523Z,67.93
2019-05-11T00:07:47.512Z,68.04
2019-05-11T00:08:47.506Z,67.83
2019-05-11T00:09:57.421Z,67.73
2019-05-11T00:10:48.492Z,66.71
2019-05-11T00:11:47.472Z,67.43
2019-05-11T00:12:47.456Z,67.63
2019-05-11T00:13:47.445Z,67.73
2019-05-11T00:14:47.443Z,67.63
2019-05-11T00:15:47.433Z,67.63
2019-05-11T00:16:47.417Z,67.43
2019-05-11T00:17:47.402Z,67.32
2019-05-11T00:18:47.390Z,67.63
2019-05-11T00:19:47.384Z,67.93
2019-05-11T00:20:47.383Z,67.83
2019-05-11T00:21:47.370Z,68.04
2019-05-11T00:22:47.348Z,68.07
2019-05-11T00:23:47.352Z,68.98
2019-05-11T00:24:47.338Z,68.24
2019-05-11T00:25:47.326Z,67.66
2019-05-11T00:26:47.303Z,67.96
2019-05-11T00:27:47.305Z,68.88
2019-05-11T00:28:47.281Z,68.27
2019-05-11T00:29:47.275Z,68.07
2019-05-11T00:30:47.268Z,68.68
2019-05-11T00:31:47.250Z,68.48
2019-05-11T00:32:47.237Z,68.98
2019-05-11T00:33:47.234Z,69.19
2019-05-11T00:34:47.215Z,69.12
2019-05-11T00:35:47.215Z,69.29
2019-05-11T00:36:47.193Z,69.29
2019-05-11T00:37:47.186Z,69.39
2019-05-11T00:38:47.182Z,68.68
2019-05-11T00:39:47.161Z,68.98
2019-05-11T00:40:47.160Z,68.07
2019-05-11T00:41:47.138Z,68.68
2019-05-11T00:42:47.128Z,68.27
2019-05-11T00:43:47.116Z,68.78
2019-05-11T00:44:47.452Z,68.98
2019-05-11T00:45:47.111Z,68.98
2019-05-11T00:46:47.086Z,68.48
2019-05-11T00:47:47.073Z,69.19
2019-05-11T00:48:47.061Z,68.88
2019-05-11T00:49:47.051Z,68.98
2019-05-11T00:50:47.052Z,69.49
2019-05-11T00:51:47.029Z,69.32
2019-05-11T00:52:47.018Z,69.19
2019-05-11T00:53:47.007Z,69.19
2019-05-11T00:54:47.012Z,69.39
2019-05-11T00:55:46.999Z,68.37
2019-05-11T00:56:46.982Z,68.88
2019-05-11T00:57:46.972Z,68.78
2019-05-11T00:58:46.955Z,68.81
2019-05-11T00:59:46.944Z,67.25
2019-05-11T01:00:46.944Z,67.46
2019-05-11T01:01:46.920Z,68.57
2019-05-11T01:02:46.909Z,68.37
2019-05-11T01:03:46.911Z,68.27
2019-05-11T01:04:46.917Z,69.39
2019-05-11T01:05:46.885Z,69.39
2019-05-11T01:06:46.865Z,68.37
2019-05-11T01:07:46.857Z,68.57
2019-05-11T01:08:46.847Z,68.88
2019-05-11T01:09:46.850Z,68.68
2019-05-11T01:10:46.831Z,68.57
2019-05-11T01:11:46.819Z,68.78
2019-05-11T01:12:46.802Z,68.71
2019-05-11T01:13:46.798Z,69.19
2019-05-11T01:14:46.778Z,69.09
2019-05-11T01:15:46.785Z,68.71
2019-05-11T01:16:46.760Z,69.02
2019-05-11T01:17:46.748Z,69.70
2019-05-11T01:18:46.743Z,69.59
2019-05-11T01:19:46.726Z,68.88
2019-05-11T01:20:46.715Z,69.59
2019-05-11T01:21:46.713Z,69.09
2019-05-11T01:22:46.693Z,70.21
2019-05-11T01:23:46.683Z,70.54
2019-05-11T01:24:46.671Z,70.14
2019-05-11T01:25:46.658Z,70.54
2019-05-11T01:26:46.656Z,70.24
2019-05-11T01:27:46.639Z,70.44
2019-05-11T01:28:46.625Z,70.24
2019-05-11T01:29:46.652Z,70.68
2019-05-11T01:30:46.612Z,70.14
2019-05-11T01:31:46.605Z,69.66
2019-05-11T01:32:46.591Z,70.44
2019-05-11T01:33:46.574Z,70.54
2019-05-11T01:34:46.560Z,70.85
2019-05-11T01:35:46.553Z,70.78
2019-05-11T01:36:46.558Z,70.68
2019-05-11T01:37:46.528Z,70.98
2019-05-11T01:38:46.519Z,71.29
2019-05-11T01:39:46.512Z,71.19
2019-05-11T01:40:58.299Z,71.70
2019-05-11T01:41:47.493Z,71.70
2019-05-11T01:42:46.482Z,71.19
2019-05-11T01:43:46.469Z,71.39
2019-05-11T01:44:46.456Z,72.14
2019-05-11T01:45:46.443Z,72.04
2019-05-11T01:46:46.445Z,71.63
2019-05-11T01:47:46.424Z,72.24
2019-05-11T01:48:46.412Z,71.43
2019-05-11T01:49:46.402Z,72.04
2019-05-11T01:50:46.390Z,71.94
2019-05-11T01:51:46.392Z,72.14
2019-05-11T01:52:57.197Z,72.45
2019-05-11T01:53:48.114Z,72.34
2019-05-11T01:54:46.349Z,72.65
2019-05-11T01:55:46.335Z,72.55
2019-05-11T01:56:46.334Z,72.65
2019-05-11T01:57:46.316Z,72.04
2019-05-11T01:58:46.316Z,72.55
2019-05-11T01:59:46.293Z,72.45
2019-05-11T02:00:46.285Z,72.34
2019-05-11T02:01:46.282Z,71.67
2019-05-11T02:02:46.260Z,72.04
2019-05-11T02:03:46.250Z,72.14
2019-05-11T02:04:46.245Z,72.38
2019-05-11T02:05:46.235Z,72.24
2019-05-11T02:06:46.228Z,72.34
2019-05-11T02:07:46.207Z,71.97
2019-05-11T02:08:46.218Z,72.14
2019-05-11T02:09:46.206Z,72.17
2019-05-11T02:10:46.181Z,72.28
2019-05-11T02:11:46.181Z,72.07
2019-05-11T02:12:46.221Z,72.07
2019-05-11T02:13:46.146Z,72.07
2019-05-11T02:14:46.138Z,71.46
2019-05-11T02:15:46.128Z,71.77
2019-05-11T02:16:46.124Z,71.56
2019-05-11T02:17:46.129Z,71.50
2019-05-11T02:18:46.094Z,71.56
2019-05-11T02:19:46.077Z,71.77
2019-05-11T02:20:46.070Z,71.67
2019-05-11T02:21:46.069Z,71.87
2019-05-11T02:22:46.046Z,71.91
2019-05-11T02:23:46.036Z,71.56
2019-05-11T02:24:46.023Z,71.77
2019-05-11T02:25:46.026Z,71.67
2019-05-11T02:26:46.014Z,72.11
2019-05-11T02:27:45.999Z,72.31
2019-05-11T02:28:45.979Z,72.21
2019-05-11T02:29:45.975Z,72.21
2019-05-11T02:30:45.963Z,72.00
2019-05-11T02:31:45.960Z,72.11
2019-05-11T02:32:45.941Z,72.41
2019-05-11T02:33:45.944Z,72.21
2019-05-11T02:34:45.918Z,72.00
2019-05-11T02:35:45.904Z,72.11
2019-05-11T02:36:45.909Z,71.91
2019-05-11T02:37:45.885Z,72.21
2019-05-11T02:38:45.874Z,72.11
2019-05-11T02:39:45.923Z,72.11
2019-05-11T02:40:45.850Z,72.11
2019-05-11T02:41:45.839Z,72.11
2019-05-11T02:42:45.845Z,72.00
2019-05-11T02:43:45.817Z,72.31
2019-05-11T02:44:45.809Z,72.24
2019-05-11T02:45:45.801Z,72.72
2019-05-11T02:46:45.801Z,72.86
2019-05-11T02:47:45.789Z,72.65
2019-05-11T02:48:45.766Z,72.65
2019-05-11T02:49:45.764Z,72.75
2019-05-11T02:50:45.750Z,72.65
2019-05-11T02:51:45.737Z,72.31
2019-05-11T02:52:45.733Z,72.14
2019-05-11T02:53:45.711Z,72.04
2019-05-11T02:54:45.709Z,72.04
2019-05-11T02:55:45.697Z,72.45
2019-05-11T02:56:45.685Z,72.34
2019-05-11T02:57:45.684Z,72.34
2019-05-11T02:58:45.669Z,72.24
2019-05-11T02:59:45.651Z,72.14
2019-05-11T03:00:45.635Z,71.53
2019-05-11T03:01:45.651Z,71.94
2019-05-11T03:02:45.631Z,71.63
2019-05-11T03:03:45.611Z,72.04
2019-05-11T03:04:45.591Z,71.59
2019-05-11T03:05:45.584Z,71.83
2019-05-11T03:06:45.573Z,71.73
2019-05-11T03:07:45.570Z,72.04
2019-05-11T03:08:45.549Z,71.91
2019-05-11T03:09:45.539Z,71.94
2019-05-11T03:10:45.530Z,71.70
2019-05-11T03:11:55.460Z,71.83
2019-05-11T03:12:46.520Z,71.83
2019-05-11T03:13:45.495Z,72.24
2019-05-11T03:14:45.485Z,72.24
2019-05-11T03:15:45.475Z,72.34
2019-05-11T03:16:45.464Z,72.24
2019-05-11T03:17:45.463Z,72.34
2019-05-11T03:18:45.447Z,72.14
2019-05-11T03:19:45.436Z,72.14
2019-05-11T03:20:45.420Z,72.14
2019-05-11T03:21:45.410Z,72.34
2019-05-11T03:22:45.415Z,72.34
2019-05-11T03:23:45.389Z,72.75
2019-05-11T03:24:45.380Z,72.34
2019-05-11T03:25:45.367Z,72.24
2019-05-11T03:26:45.356Z,72.55
2019-05-11T03:27:45.354Z,72.52
2019-05-11T03:28:45.339Z,72.65
2019-05-11T03:29:45.322Z,72.65
2019-05-11T03:30:45.477Z,72.75
2019-05-11T03:31:45.321Z,72.34
2019-05-11T03:32:45.317Z,72.55
2019-05-11T03:33:45.310Z,72.00
2019-05-11T03:34:45.274Z,72.24
2019-05-11T03:35:45.263Z,72.21
2019-05-11T03:36:45.248Z,72.55
2019-05-11T03:37:45.246Z,72.65
2019-05-11T03:38:45.225Z,72.92
2019-05-11T03:39:45.214Z,72.96
2019-05-11T03:40:45.207Z,72.34
2019-05-11T03:41:45.196Z,72.55
2019-05-11T03:42:45.217Z,72.04
2019-05-11T03:43:45.176Z,72.31
2019-05-11T03:44:45.164Z,71.63
2019-05-11T03:45:45.150Z,72.34
2019-05-11T03:46:45.147Z,72.21
2019-05-11T03:47:45.160Z,72.75
2019-05-11T03:48:45.131Z,72.62
2019-05-11T03:49:45.110Z,72.72
2019-05-11T03:50:45.098Z,72.82
2019-05-11T03:51:45.088Z,72.55
2019-05-11T03:52:45.080Z,72.41
2019-05-11T03:53:45.180Z,72.34
2019-05-11T03:54:45.052Z,72.11
2019-05-11T03:55:45.143Z,71.19
2019-05-11T03:56:45.035Z,71.50
2019-05-11T03:57:45.025Z,71.50
2019-05-11T03:58:45.023Z,71.29
2019-05-11T03:59:45.003Z,71.29
2019-05-11T04:00:44.995Z,71.80
2019-05-11T04:01:44.980Z,71.50
2019-05-11T04:02:44.969Z,71.70
2019-05-11T04:03:44.971Z,71.19
2019-05-11T04:04:44.950Z,71.29
2019-05-11T04:05:44.940Z,71.59
2019-05-11T04:06:44.954Z,71.09
2019-05-11T04:07:44.917Z,71.29
2019-05-11T04:08:44.920Z,71.59
2019-05-11T04:09:44.895Z,71.09
2019-05-11T04:10:44.888Z,71.59
2019-05-11T04:11:44.877Z,71.59
2019-05-11T04:12:44.863Z,71.50
2019-05-11T04:13:44.887Z,71.19
2019-05-11T04:14:44.840Z,71.50
2019-05-11T04:15:44.832Z,71.09
2019-05-11T04:16:44.822Z,70.37
2019-05-11T04:17:44.810Z,70.27
2019-05-11T04:18:44.812Z,70.78
2019-05-11T04:19:44.787Z,70.78
2019-05-11T04:20:44.778Z,70.14
2019-05-11T04:21:44.765Z,70.64
2019-05-11T04:22:44.759Z,70.23
2019-05-11T04:23:44.757Z,70.44
2019-05-11T04:24:44.734Z,70.64
2019-05-11T04:25:44.728Z,70.75
2019-05-11T04:26:44.714Z,70.75
2019-05-11T04:27:44.703Z,70.54
2019-05-11T04:28:44.703Z,71.26
2019-05-11T04:29:44.686Z,70.75
2019-05-11T04:30:44.670Z,70.23
2019-05-11T04:31:44.661Z,69.82
2019-05-11T04:32:44.650Z,69.73
2019-05-11T04:33:44.647Z,69.82
2019-05-11T04:34:44.632Z,69.52
2019-05-11T04:35:44.618Z,70.23
2019-05-11T04:36:44.607Z,70.03
2019-05-11T04:37:44.600Z,70.20
2019-05-11T04:38:44.599Z,69.38
2019-05-11T04:39:44.585Z,69.08
2019-05-11T04:40:44.566Z,69.08
2019-05-11T04:41:44.553Z,68.98
2019-05-11T04:42:55.138Z,69.29
2019-05-11T04:43:45.545Z,68.98
2019-05-11T04:44:44.523Z,68.98
2019-05-11T04:45:44.523Z,68.88
2019-05-11T04:46:44.503Z,69.18
2019-05-11T04:47:44.490Z,69.08
2019-05-11T04:48:44.496Z,68.77
2019-05-11T04:49:44.470Z,69.08
2019-05-11T04:50:44.460Z,69.08
2019-05-11T04:51:44.451Z,68.98
2019-05-11T04:52:44.438Z,69.08
2019-05-11T04:53:44.446Z,69.69
2019-05-11T04:54:44.418Z,69.49
2019-05-11T04:55:44.409Z,68.77
2019-05-11T04:56:44.396Z,69.08
2019-05-11T04:57:44.386Z,68.98
2019-05-11T04:58:44.415Z,68.74
2019-05-11T04:59:44.365Z,68.98
2019-05-11T05:00:44.354Z,69.08
2019-05-11T05:01:44.339Z,68.98
2019-05-11T05:02:44.329Z,69.69
2019-05-11T05:03:47.391Z,70.00
2019-05-11T05:04:45.324Z,69.29
2019-05-11T05:05:44.298Z,68.98
2019-05-11T05:06:57.848Z,68.98
2019-05-11T05:07:48.893Z,68.98
2019-05-11T05:08:45.265Z,68.67
2019-05-11T05:09:44.804Z,68.88
2019-05-11T05:10:44.242Z,69.18
2019-05-11T05:11:44.236Z,69.49
2019-05-11T05:12:50.669Z,69.79
2019-05-11T05:13:45.208Z,69.18
2019-05-11T05:14:44.210Z,69.79
2019-05-11T05:15:44.190Z,69.08
2019-05-11T05:16:44.211Z,69.59
2019-05-11T05:17:44.167Z,69.18
2019-05-11T05:18:44.159Z,69.29
2019-05-11T05:19:44.154Z,69.79
2019-05-11T05:20:44.191Z,69.46
2019-05-11T05:21:44.131Z,68.23
2019-05-11T05:22:44.117Z,68.44
2019-05-11T05:23:44.111Z,68.84
2019-05-11T05:24:44.102Z,68.54
2019-05-11T05:25:44.085Z,68.54
2019-05-11T05:26:44.081Z,68.91
2019-05-11T05:27:44.066Z,68.13
2019-05-11T05:28:45.902Z,68.61
2019-05-11T05:29:44.048Z,68.71
2019-05-11T05:30:44.027Z,68.51
2019-05-11T05:31:44.017Z,68.71
2019-05-11T05:32:44.008Z,68.51
2019-05-11T05:33:43.997Z,68.57
2019-05-11T05:34:43.998Z,67.79
2019-05-11T05:35:43.973Z,67.38
2019-05-11T05:36:43.976Z,67.38
2019-05-11T05:37:43.951Z,67.18
2019-05-11T05:38:43.940Z,67.25
2019-05-11T05:39:43.946Z,67.76
2019-05-11T05:40:43.921Z,67.66
2019-05-11T05:41:56.212Z,68.37
2019-05-11T05:42:44.904Z,67.05
2019-05-11T05:43:43.888Z,67.66
2019-05-11T05:44:43.888Z,67.02
2019-05-11T05:45:43.871Z,67.02
2019-05-11T05:46:43.858Z,67.02
2019-05-11T05:47:43.849Z,67.02
2019-05-11T05:48:43.831Z,67.02
2019-05-11T05:49:43.837Z,67.22
2019-05-11T05:50:43.819Z,67.83
2019-05-11T05:51:43.837Z,67.12
2019-05-11T05:52:43.791Z,66.99
2019-05-11T05:53:43.802Z,66.91
2019-05-11T05:54:43.779Z,66.82
2019-05-11T05:55:43.756Z,66.78
2019-05-11T05:56:43.754Z,66.71
2019-05-11T05:57:43.738Z,66.88
2019-05-11T05:58:43.724Z,67.08
2019-05-11T05:59:43.721Z,66.27
2019-05-11T06:00:43.703Z,66.47
2019-05-11T06:01:43.696Z,66.07
2019-05-11T06:02:43.688Z,66.14
2019-05-11T06:03:43.678Z,65.73
2019-05-11T06:04:43.670Z,64.92
2019-05-11T06:05:43.651Z,65.22
2019-05-11T06:06:43.654Z,65.09
2019-05-11T06:07:43.633Z,64.92
2019-05-11T06:08:43.626Z,64.89
2019-05-11T06:09:43.638Z,62.85
2019-05-11T06:10:43.608Z,62.24
2019-05-11T06:11:43.592Z,62.35
2019-05-11T06:12:43.579Z,62.82
2019-05-11T06:13:45.590Z,62.62
2019-05-11T06:14:43.559Z,62.52
2019-05-11T06:15:43.572Z,61.91
2019-05-11T06:16:43.549Z,61.68
2019-05-11T06:17:43.523Z,61.88
2019-05-11T06:18:43.513Z,61.37
2019-05-11T06:19:43.504Z,61.04
2019-05-11T06:20:43.528Z,60.74
2019-05-11T06:21:43.484Z,61.01
2019-05-11T06:22:43.481Z,60.94
2019-05-11T06:23:43.456Z,61.01
2019-05-11T06:24:43.444Z,59.28
2019-05-11T06:25:43.443Z,58.58
2019-05-11T06:26:43.424Z,59.18
2019-05-11T06:27:43.420Z,57.56
2019-05-11T06:28:43.408Z,56.85
2019-05-11T06:29:43.390Z,56.11
2019-05-11T06:30:43.481Z,56.92
2019-05-11T06:31:43.382Z,55.71
2019-05-11T06:32:43.398Z,55.40
2019-05-11T06:33:43.377Z,55.80
2019-05-11T06:34:43.345Z,55.91
2019-05-11T06:35:43.343Z,55.60
2019-05-11T06:36:43.325Z,55.47
2019-05-11T06:37:43.349Z,55.58
2019-05-11T06:38:44.401Z,55.07
2019-05-11T06:39:44.086Z,55.17
2019-05-11T06:40:44.347Z,55.07
2019-05-11T06:41:43.289Z,55.15
2019-05-11T06:42:44.023Z,54.64
2019-05-11T06:43:59.585Z,55.04
2019-05-11T06:44:51.894Z,54.53
2019-05-11T06:45:43.323Z,54.64
2019-05-11T06:46:43.213Z,54.64
2019-05-11T06:47:43.200Z,54.64
2019-05-11T06:48:43.191Z,55.22
2019-05-11T06:49:43.177Z,53.72
2019-05-11T06:50:43.182Z,53.80
2019-05-11T06:51:43.191Z,55.32
2019-05-11T06:52:44.604Z,54.71
2019-05-11T06:53:46.077Z,55.63
2019-05-11T06:54:43.134Z,54.89
2019-05-11T06:55:43.138Z,54.69
2019-05-11T06:56:43.110Z,54.18
2019-05-11T06:57:43.099Z,54.66
2019-05-11T06:58:45.487Z,54.26
2019-05-11T06:59:43.075Z,52.74
2019-05-11T07:00:43.083Z,53.65
2019-05-11T07:01:43.052Z,53.22
2019-05-11T07:02:43.043Z,53.32
2019-05-11T07:03:43.030Z,52.61
2019-05-11T07:04:43.017Z,51.50
2019-05-11T07:05:43.019Z,52.01
2019-05-11T07:06:42.995Z,51.90
2019-05-11T07:07:47.580Z,52.61
2019-05-11T07:08:42.977Z,52.81
2019-05-11T07:09:42.970Z,52.21
2019-05-11T07:10:42.965Z,51.70
2019-05-11T07:11:42.937Z,51.90
2019-05-11T07:12:42.927Z,50.99
2019-05-11T07:13:42.919Z,50.79
2019-05-11T07:14:42.908Z,50.87
2019-05-11T07:15:42.909Z,51.30
2019-05-11T07:16:42.888Z,50.77
2019-05-11T07:17:42.875Z,50.37
2019-05-11T07:18:42.869Z,50.59
2019-05-11T07:19:42.865Z,50.16
2019-05-11T07:20:50.494Z,49.66
2019-05-11T07:21:43.859Z,49.66
2019-05-11T07:22:42.825Z,50.26
2019-05-11T07:23:42.808Z,50.77
2019-05-11T07:24:42.799Z,50.87
2019-05-11T07:25:42.832Z,49.86
2019-05-11T07:26:42.782Z,50.26
2019-05-11T07:27:42.775Z,50.46
2019-05-11T07:28:42.756Z,50.87
2019-05-11T07:29:42.745Z,50.57
2019-05-11T07:30:42.744Z,49.55
2019-05-11T07:31:42.740Z,49.55
2019-05-11T07:32:42.722Z,49.45
2019-05-11T07:33:42.708Z,50.06
2019-05-11T07:34:42.699Z,49.86
2019-05-11T07:35:42.689Z,48.85
2019-05-11T07:36:42.695Z,48.85
2019-05-11T07:37:42.661Z,49.84
2019-05-11T07:38:42.658Z,50.54
2019-05-11T07:39:42.644Z,48.52
2019-05-11T07:40:42.633Z,48.50
2019-05-11T07:41:42.632Z,49.30
2019-05-11T07:42:42.606Z,46.78
2019-05-11T07:43:42.592Z,46.78
2019-05-11T07:44:42.581Z,47.28
2019-05-11T07:45:42.572Z,47.39
2019-05-11T07:46:42.567Z,47.49
2019-05-11T07:47:42.551Z,47.28
2019-05-11T07:48:42.547Z,46.96
2019-05-11T07:49:42.577Z,48.27
2019-05-11T07:50:42.536Z,46.15
2019-05-11T07:51:42.528Z,46.98
2019-05-11T07:52:42.567Z,47.56
2019-05-11T07:53:42.500Z,47.87
2019-05-11T07:54:42.510Z,46.86
2019-05-11T07:55:42.616Z,47.26
2019-05-11T07:56:42.517Z,47.54
2019-05-11T07:57:42.494Z,46.36
2019-05-11T07:58:42.456Z,46.03
2019-05-11T07:59:42.430Z,46.94
2019-05-11T08:00:42.418Z,47.04
2019-05-11T08:01:42.468Z,46.03
2019-05-11T08:02:42.426Z,46.23
2019-05-11T08:03:42.403Z,45.83
2019-05-11T08:04:42.386Z,46.21
2019-05-11T08:05:42.360Z,45.81
2019-05-11T08:06:42.360Z,45.90
2019-05-11T08:07:42.343Z,45.30
2019-05-11T08:08:42.338Z,47.82
2019-05-11T08:09:42.320Z,46.21
2019-05-11T08:10:42.323Z,46.11
2019-05-11T08:11:42.344Z,45.89
2019-05-11T08:12:42.288Z,44.57
2019-05-11T08:13:42.275Z,44.78
2019-05-11T08:14:56.657Z,43.66
2019-05-11T08:15:43.252Z,44.47
2019-05-11T08:16:42.253Z,44.98
2019-05-11T08:17:42.234Z,44.87
2019-05-11T08:18:42.273Z,45.16
2019-05-11T08:19:42.254Z,45.36
2019-05-11T08:20:42.197Z,45.06
2019-05-11T08:21:42.203Z,45.16
2019-05-11T08:22:42.196Z,45.16
2019-05-11T08:23:42.165Z,43.24
2019-05-11T08:24:42.160Z,44.35
2019-05-11T08:25:42.155Z,44.63
2019-05-11T08:26:42.264Z,42.32
2019-05-11T08:27:42.145Z,43.93
2019-05-11T08:28:42.114Z,44.02
2019-05-11T08:29:42.103Z,44.13
2019-05-11T08:30:42.102Z,43.93
2019-05-11T08:31:42.088Z,41.91
2019-05-11T08:32:42.091Z,41.59
2019-05-11T08:33:42.062Z,41.89
2019-05-11T08:34:42.059Z,42.40
2019-05-11T08:35:42.035Z,42.58
2019-05-11T08:36:42.047Z,42.47
2019-05-11T08:37:42.045Z,43.88
2019-05-11T08:38:42.014Z,42.27
2019-05-11T08:39:42.027Z,41.75
2019-05-11T08:40:42.006Z,42.35
2019-05-11T08:41:42.001Z,42.15
2019-05-11T08:42:41.981Z,42.15
2019-05-11T08:43:41.949Z,42.55
2019-05-11T08:44:41.948Z,41.93
2019-05-11T08:45:41.929Z,41.83
2019-05-11T08:46:41.926Z,40.12
2019-05-11T08:47:41.936Z,41.63
2019-05-11T08:48:41.905Z,40.22
2019-05-11T08:49:41.894Z,40.30
2019-05-11T08:50:41.886Z,41.63
2019-05-11T08:51:41.947Z,40.70
2019-05-11T08:52:41.881Z,40.50
2019-05-11T08:53:41.846Z,41.71
2019-05-11T08:54:41.833Z,40.61
2019-05-11T08:55:41.827Z,40.20
2019-05-11T08:56:41.855Z,40.91
2019-05-11T08:57:41.872Z,41.59
2019-05-11T08:58:41.800Z,40.20
2019-05-11T08:59:41.792Z,40.48
2019-05-11T09:00:41.768Z,39.28
2019-05-11T09:01:41.763Z,40.28
2019-05-11T09:02:41.799Z,41.37
2019-05-11T09:03:41.745Z,40.47
2019-05-11T09:04:42.179Z,39.47
2019-05-11T09:05:41.732Z,40.26
2019-05-11T09:06:41.706Z,38.66
2019-05-11T09:07:41.708Z,39.97
2019-05-11T09:08:41.686Z,38.26
2019-05-11T09:09:41.675Z,39.26
2019-05-11T09:10:41.662Z,38.26
2019-05-11T09:11:41.687Z,38.36
2019-05-11T09:12:41.656Z,38.86
2019-05-11T09:13:41.630Z,40.06
2019-05-11T09:14:41.649Z,37.54
2019-05-11T09:15:41.611Z,38.46
2019-05-11T09:16:41.658Z,38.96
2019-05-11T09:17:41.604Z,37.76
2019-05-11T09:18:41.581Z,40.17
2019-05-11T09:19:41.588Z,38.68
2019-05-11T09:20:41.560Z,39.08
2019-05-11T09:21:41.565Z,39.18
2019-05-11T09:22:41.548Z,38.68
2019-05-11T09:23:41.541Z,38.98
2019-05-11T09:24:41.528Z,39.08
2019-05-11T09:25:41.502Z,39.28
2019-05-11T09:26:41.527Z,40.41
2019-05-11T09:27:43.427Z,40.28
2019-05-11T09:28:41.477Z,40.20
2019-05-11T09:29:41.457Z,40.00
2019-05-11T09:30:41.449Z,39.30
2019-05-11T09:31:41.436Z,40.11
2019-05-11T09:32:41.443Z,40.00
2019-05-11T09:33:41.427Z,39.90
2019-05-11T09:34:41.420Z,39.30
2019-05-11T09:35:50.054Z,39.90
2019-05-11T09:36:42.388Z,40.00
2019-05-11T09:37:41.369Z,40.08
2019-05-11T09:38:41.372Z,38.70
2019-05-11T09:39:41.358Z,39.90
2019-05-11T09:40:41.351Z,38.79
2019-05-11T09:41:41.335Z,39.40
2019-05-11T09:42:41.341Z,39.00
2019-05-11T09:43:41.320Z,39.10
2019-05-11T09:44:41.358Z,39.80
2019-05-11T09:45:48.102Z,39.40
2019-05-11T09:46:42.276Z,38.70
2019-05-11T09:47:41.265Z,39.00
2019-05-11T09:48:41.265Z,40.30
2019-05-11T09:49:47.516Z,39.00
2019-05-11T09:50:42.227Z,39.50
2019-05-11T09:51:41.221Z,39.30
2019-05-11T09:52:41.530Z,39.10
2019-05-11T09:53:41.227Z,38.81
2019-05-11T09:54:41.200Z,39.50
2019-05-11T09:55:41.226Z,39.32
2019-05-11T09:56:41.174Z,39.12
2019-05-11T09:57:41.159Z,39.32
2019-05-11T09:58:41.164Z,40.22
2019-05-11T09:59:41.134Z,41.03
2019-05-11T10:00:41.123Z,40.12
2019-05-11T10:01:41.112Z,39.34
2019-05-11T10:02:41.101Z,40.02
2019-05-11T10:03:41.102Z,40.44
2019-05-11T10:04:41.082Z,40.14
2019-05-11T10:05:41.071Z,41.35
2019-05-11T10:06:41.057Z,40.26
2019-05-11T10:07:41.057Z,40.66
2019-05-11T10:08:41.050Z,40.36
2019-05-11T10:09:41.031Z,40.77
2019-05-11T10:10:41.021Z,41.27
2019-05-11T10:11:41.016Z,41.97
2019-05-11T10:12:40.994Z,41.37
2019-05-11T10:13:41.009Z,41.39
2019-05-11T10:14:40.976Z,40.18
2019-05-11T10:15:41.006Z,40.69
2019-05-11T10:16:40.958Z,40.89
2019-05-11T10:17:40.937Z,40.38
2019-05-11T10:18:40.942Z,40.18
2019-05-11T10:19:40.924Z,40.48
2019-05-11T10:20:40.907Z,41.09
2019-05-11T10:21:40.900Z,40.99
2019-05-11T10:22:40.900Z,41.09
2019-05-11T10:23:42.610Z,41.99
2019-05-11T10:24:40.863Z,41.31
2019-05-11T10:25:40.858Z,41.81
2019-05-11T10:26:40.849Z,42.21
2019-05-11T10:27:40.844Z,41.61
2019-05-11T10:28:40.829Z,41.81
2019-05-11T10:29:40.814Z,42.92
2019-05-11T10:30:40.800Z,41.71
2019-05-11T10:31:40.795Z,41.61
2019-05-11T10:32:40.779Z,42.01
2019-05-11T10:33:40.793Z,40.50
2019-05-11T10:34:40.788Z,41.61
2019-05-11T10:35:40.757Z,42.52
2019-05-11T10:36:40.738Z,40.40
2019-05-11T10:37:40.728Z,41.71
2019-05-11T10:38:40.727Z,42.11
2019-05-11T10:39:40.703Z,41.81
2019-05-11T10:40:40.694Z,42.11
2019-05-11T10:41:40.707Z,42.11
2019-05-11T10:42:40.669Z,41.11
2019-05-11T10:43:40.689Z,42.61
2019-05-11T10:44:40.654Z,42.32
2019-05-11T10:45:40.636Z,41.93
2019-05-11T10:46:40.627Z,41.73
2019-05-11T10:47:40.629Z,41.83
2019-05-11T10:48:40.621Z,41.53
2019-05-11T10:49:40.597Z,41.63
2019-05-11T10:50:40.614Z,42.03
2019-05-11T10:51:40.573Z,42.35
2019-05-11T10:52:40.560Z,41.65
2019-05-11T10:53:40.571Z,42.13
2019-05-11T10:54:40.541Z,41.95
2019-05-11T10:55:40.528Z,42.64
2019-05-11T10:56:40.580Z,42.74
2019-05-11T10:57:40.517Z,42.33
2019-05-11T10:58:40.496Z,41.73
2019-05-11T10:59:40.494Z,42.24
2019-05-11T11:00:40.478Z,41.83
2019-05-11T11:01:40.729Z,42.94
2019-05-11T11:02:40.463Z,43.14
2019-05-11T11:03:40.450Z,42.74
2019-05-11T11:04:40.455Z,43.24
2019-05-11T11:05:40.431Z,43.74
2019-05-11T11:06:40.453Z,43.44
2019-05-11T11:07:40.418Z,43.95
2019-05-11T11:08:40.391Z,43.54
2019-05-11T11:09:40.416Z,43.65
2019-05-11T11:10:40.370Z,42.74
2019-05-11T11:11:40.356Z,42.54
2019-05-11T11:12:40.351Z,42.84
2019-05-11T11:13:40.385Z,42.24
2019-05-11T11:14:40.337Z,42.64
2019-05-11T11:15:40.321Z,42.54
2019-05-11T11:16:42.951Z,42.74
2019-05-11T11:17:40.290Z,42.33
2019-05-11T11:18:40.284Z,43.54
2019-05-11T11:19:40.289Z,44.25
2019-05-11T11:20:40.259Z,43.54
2019-05-11T11:21:40.254Z,43.44
2019-05-11T11:22:44.031Z,44.65
2019-05-11T11:23:40.233Z,44.05
2019-05-11T11:24:40.230Z,43.44
2019-05-11T11:25:40.209Z,43.74
2019-05-11T11:26:40.194Z,43.95
2019-05-11T11:27:40.195Z,43.04
2019-05-11T11:28:40.171Z,42.94
2019-05-11T11:29:40.175Z,43.24
2019-05-11T11:30:40.158Z,44.25
2019-05-11T11:31:40.145Z,44.15
2019-05-11T11:32:40.132Z,44.35
2019-05-11T11:33:40.121Z,43.65
2019-05-11T11:34:40.123Z,43.44
2019-05-11T11:35:40.116Z,44.17
2019-05-11T11:36:40.085Z,44.15
2019-05-11T11:37:40.075Z,43.74
2019-05-11T11:38:40.085Z,43.65
2019-05-11T11:39:40.069Z,43.65
2019-05-11T11:40:42.842Z,43.57
2019-05-11T11:41:40.044Z,44.07
2019-05-11T11:42:40.022Z,44.07
2019-05-11T11:43:40.012Z,43.46
2019-05-11T11:44:40.011Z,44.37
2019-05-11T11:45:39.991Z,44.17
2019-05-11T11:46:50.937Z,44.27
2019-05-11T11:47:40.967Z,44.07
2019-05-11T11:48:39.960Z,44.07
2019-05-11T11:49:39.988Z,44.67
2019-05-11T11:50:39.937Z,44.35
2019-05-11T11:51:39.925Z,44.35
2019-05-11T11:52:39.918Z,44.85
2019-05-11T11:53:39.898Z,44.45
2019-05-11T11:54:39.885Z,44.35
2019-05-11T11:55:39.893Z,44.67
2019-05-11T11:56:39.868Z,45.46
2019-05-11T11:57:39.858Z,44.07
2019-05-11T11:58:39.845Z,43.85
2019-05-11T11:59:39.835Z,44.37
2019-05-11T12:00:39.836Z,44.47
2019-05-11T12:01:39.810Z,44.07
2019-05-11T12:02:39.810Z,44.87
2019-05-11T12:03:39.792Z,44.98
2019-05-11T12:04:39.787Z,45.98
2019-05-11T12:05:39.779Z,45.98
2019-05-11T12:06:39.762Z,45.68
2019-05-11T12:07:39.747Z,45.07
2019-05-11T12:08:39.737Z,44.57
2019-05-11T12:09:39.731Z,45.18
2019-05-11T12:10:39.734Z,45.28
2019-05-11T12:11:39.709Z,44.78
2019-05-11T12:12:39.694Z,45.78
2019-05-11T12:13:39.684Z,45.78
2019-05-11T12:14:39.671Z,46.09
2019-05-11T12:15:39.670Z,45.68
2019-05-11T12:16:39.650Z,45.07
2019-05-11T12:17:39.650Z,44.98
2019-05-11T12:18:39.636Z,45.10
2019-05-11T12:19:39.619Z,46.01
2019-05-11T12:20:39.622Z,46.71
2019-05-11T12:21:39.612Z,46.81
2019-05-11T12:22:39.593Z,47.22
2019-05-11T12:23:39.580Z,47.12
2019-05-11T12:24:39.571Z,47.22
2019-05-11T12:25:40.732Z,49.33
2019-05-11T12:26:39.548Z,47.02
2019-05-11T12:27:39.545Z,48.53
2019-05-11T12:28:39.530Z,49.13
2019-05-11T12:29:39.514Z,49.84
2019-05-11T12:30:39.521Z,50.85
2019-05-11T12:31:39.494Z,50.07
2019-05-11T12:32:39.484Z,50.87
2019-05-11T12:33:39.471Z,51.18
2019-05-11T12:34:39.463Z,51.78
2019-05-11T12:35:39.470Z,51.68
2019-05-11T12:36:39.441Z,51.78
2019-05-11T12:37:39.428Z,51.48
2019-05-11T12:38:39.427Z,52.39
2019-05-11T12:39:39.408Z,51.48
2019-05-11T12:40:39.410Z,51.68
2019-05-11T12:41:39.389Z,51.61
2019-05-11T12:42:39.375Z,51.48
2019-05-11T12:43:39.372Z,52.82
2019-05-11T12:44:39.355Z,52.92
2019-05-11T12:45:39.359Z,52.82
2019-05-11T12:46:39.635Z,52.31
2019-05-11T12:47:39.328Z,52.21
2019-05-11T12:48:39.311Z,52.31
2019-05-11T12:49:39.300Z,52.51
2019-05-11T12:50:39.328Z,52.82
2019-05-11T12:51:39.279Z,52.01
2019-05-11T12:52:39.275Z,51.73